Stations

Station Name Date Time Temperature Relative Humidity Precipitation Wind Speed Wind Direction Create Custom Report Daily Report Hourly Report
Aberdeen VTcr 2018-16-12 13:15 51.8 87.80 0.00
Bee Lake 2018-16-12 13:15
Brooksville 2018-16-12 13:15 53.6 87.60 0.00 5.42 W
Brooksville2 VTso 2018-16-12 13:15 54.9 85.50 0.00
Brown Loam Exp Stn VT 2018-16-12 13:15 55.4 74.16 0.00
Catladge Farm 2018-16-12 13:15 57.5 74.63 0.00 1.78 S
Clarksdale VTso 2018-24-10 8:30 50.6 84.40 0.00
Cleveland 2018-16-12 13:15 57.4 80.20 0.00 4.35 SSW
COOP Stoneville 2018-13-12 7:00 57.0 0.01
Home Cypress Farm 2018-16-12 13:15 56.6 77.53 0.00 3.63 SSE
Jackson Co 2018-16-12 13:15 62.8 67.00 0.00 1.72 NNE
Longwood VTso 2018-16-12 13:15 58.0 70.71 0.00
Lyon 2018-16-12 13:15 57.0 75.15 0.00 3.41 SSE
Macon VTcr 2018-16-12 13:15 53.9 86.50 0.00
Mound Bayou 2018-16-12 13:15 57.3 80.50 0.00 1.99 SW
Olive Branch VTcr 2018-16-12 13:15
Olive Branch2 VTso 2018-16-12 13:15 57.3 69.22 0.00
Onward VT 2018-16-12 13:15 56.1 72.90 0.00
Pontotoc AWS COOP 2018-16-12 13:15
Prairie 2018-16-12 13:15 52.5 99.30 0.00 4.52 WNW
Sidon 2018-16-12 13:00 52.9 83.90 0.00 2.07 E
Stockett Farm 2018-16-12 13:15 55.0 80.10 0.00 2.53 SSW
Stoneville AWS 2018-16-12 13:00 56.8 72.26 0.00 1.89 SW
Stoneville F10 2018-16-12 13:15 58.0 65.78 0.00 2.27 WSW
Stoneville SW 2018-16-12 13:15 57.0 78.28 0.00 1.35 WNW
Stoneville W 2018-16-12 13:15 57.6 74.66 0.00 0.80 ENE
Thighman 2018-16-12 13:15 53.1 85.40 0.00 2.07 W
Tippo VT 2018-16-12 13:15 52.0 89.20 0.00
Tribbett 2018-16-12 13:15 56.3 76.91 0.00 2.12 SSE
Verona 2018-16-12 13:15 55.3 82.90 0.00 3.27 WSW
Verona VTso 2018-16-12 13:15 55.1 85.60 0.00